This is the latest recevied weather packets stored in our database for station/object N2RDT. If no packets are shown the sender has not sent any weather packets the latest 10 day(s).
| Time | Temp. | Humidity | Pressure | Rain* | Wind** | Luminosity | Snow |
|---|---|---|---|---|---|---|---|
| 1777380867 | 11.67° C | 73% | 1024.9 hPa | 0 mm | - | 107 W/m² | - |
| 1777380564 | 11.67° C | 73% | 1024.5 hPa | 0 mm | - | 66 W/m² | - |
| 1777380260 | 11.67° C | 74% | 1024.8 hPa | 0 mm | - | 114 W/m² | - |
| 1777379956 | 11.67° C | 75% | 1025.5 hPa | 0 mm | - | 270 W/m² | - |
| 1777379652 | 11.67° C | 74% | 1025.5 hPa | 0 mm | - | 197 W/m² | - |
| 1777379348 | 11.67° C | 73% | 1025.5 hPa | 0 mm | - | 150 W/m² | - |
| 1777379043 | 11.67° C | 75% | 1025.4 hPa | 0 mm | - | 221 W/m² | - |
| 1777378737 | 11.11° C | 75% | 1025.5 hPa | 0 mm | - | 203 W/m² | - |
| 1777378435 | 11.11° C | 74% | 1025.4 hPa | 0 mm | - | 173 W/m² | - |
| 1777378129 | 11.11° C | 75% | 1025.4 hPa | 0 mm | - | 131 W/m² | - |
| 1777377824 | 11.11° C | 76% | 1025.3 hPa | 0 mm | - | 138 W/m² | - |
| 1777377523 | 10.56° C | 79% | 1025.2 hPa | 0 mm | - | 150 W/m² | - |
| 1777377219 | 10.56° C | 78% | 1025 hPa | 0 mm | - | 136 W/m² | - |
| 1777376917 | 10.56° C | 81% | 1025.1 hPa | 0 mm | - | 112 W/m² | - |
| 1777376613 | 10° C | 84% | 1024.9 hPa | 0 mm | - | 104 W/m² | - |
| 1777376311 | 9.44° C | 87% | 1024.5 hPa | 0 mm | - | 100 W/m² | - |
| 1777376006 | 8.89° C | 89% | 1024.3 hPa | 0 mm | - | 90 W/m² | - |
| 1777375705 | 8.33° C | 93% | 1024.2 hPa | 0 mm | - | 77 W/m² | - |
| 1777375400 | 7.78° C | 95% | 1023.8 hPa | 0 mm | - | 72 W/m² | - |
| 1777375098 | 7.22° C | 95% | 1023.6 hPa | 0 mm | - | 65 W/m² | - |
| 1777374797 | 7.22° C | 96% | 1023.1 hPa | 0 mm | - | 61 W/m² | - |
| 1777374493 | 6.67° C | 96% | 1023.2 hPa | 0 mm | - | 51 W/m² | - |
| 1777374191 | 6.67° C | 96% | 1023.1 hPa | 0 mm | - | 44 W/m² | - |
| 1777373886 | 6.11° C | 95% | 1023 hPa | 0 mm | - | 35 W/m² | - |
| 1777373584 | 6.11° C | 95% | 1022.9 hPa | 0 mm | - | 28 W/m² | - |
* Rain latest hour (hover to see other rain measurements)
** Current wind speed in m/s (hover to see current wind gust speed)